Time;durP1;ratioP1;P1;durP2;ratioP2;P2;SDS_P1;SDS_P2;PMS_P1;PMS_P2;Temp;Humidity;BMP_temperature;BMP_pressure;BME280_temperature;BME280_humidity;BME280_pressure;Samples;Min_cycle;Max_cycle;Signal;HPM_P1;HPM_P2
2023/08/27 00:02:39;;;;;;;15.23;12.53;;;;;23.20;96354.00;;;;5037483;28;20209;-86
2023/08/27 00:05:28;;;;;;;14.43;12.03;;;;;22.80;96353.00;;;;5049282;28;20200;-87
2023/08/27 00:08:17;;;;;;;14.83;12.57;;;;;23.20;96357.00;;;;5054751;28;20224;-84
2023/08/27 00:11:06;;;;;;;13.93;11.80;;;;;23.20;96349.00;;;;5045927;28;20234;-87
2023/08/27 00:13:56;;;;;;;13.83;11.63;;;;;23.30;96340.00;;;;5033003;28;20576;-88
2023/08/27 00:16:45;;;;;;;12.60;11.30;;;;;23.30;96341.00;;;;5049381;28;21123;-85
2023/08/27 00:19:35;;;;;;;13.83;11.93;;;;;23.20;96333.00;;;;5053042;28;20197;-87
2023/08/27 00:22:24;;;;;;;15.23;12.33;;;;;22.50;96333.00;;;;5035574;28;20225;-86
2023/08/27 00:25:14;;;;;;;14.90;13.30;;;;;22.30;96322.00;;;;5045370;28;20200;-85
2023/08/27 00:28:03;;;;;;;15.10;12.73;;;;;22.30;96310.00;;;;5046865;28;20197;-85
2023/08/27 00:30:52;;;;;;;16.53;13.30;;;;;21.50;96302.00;;;;5050542;28;20228;-91
2023/08/27 00:33:41;;;;;;;15.17;12.47;;;;;21.80;96305.00;;;;5042706;28;20706;-87
2023/08/27 00:36:32;;;;;;;13.33;11.47;;;;;22.20;96308.00;;;;5033084;28;20221;-86
2023/08/27 00:39:21;;;;;;;15.73;11.73;;;;;22.50;96301.00;;;;5044307;28;20259;-84
2023/08/27 00:42:10;;;;;;;16.37;11.67;;;;;21.90;96304.00;;;;5036656;28;20235;-85
2023/08/27 00:44:59;;;;;;;13.73;11.23;;;;;21.90;96299.00;;;;5032246;28;20199;-85
2023/08/27 00:47:48;;;;;;;15.25;12.25;;;;;21.90;96311.00;;;;5042329;28;20398;-85
2023/08/27 00:50:37;;;;;;;11.83;10.60;;;;;22.60;96308.00;;;;5050079;28;20658;-86
2023/08/27 00:53:28;;;;;;;15.13;9.47;;;;;22.60;96305.00;;;;5043055;28;20209;-84
2023/08/27 00:56:17;;;;;;;18.90;13.00;;;;;22.60;96295.00;;;;5045868;28;20532;-84
2023/08/27 00:59:06;;;;;;;14.07;11.10;;;;;22.50;96294.00;;;;5050531;28;20205;-88
2023/08/27 01:01:55;;;;;;;14.27;10.80;;;;;22.50;96300.00;;;;5050380;28;20229;-86
2023/08/27 01:04:44;;;;;;;11.43;10.23;;;;;22.70;96303.00;;;;5061072;28;20214;-87
2023/08/27 01:07:37;;;;;;;9.50;8.43;;;;;22.70;96304.00;;;;5051207;28;20201;-87
2023/08/27 01:10:32;;;;;;;11.53;9.60;;;;;22.50;96302.00;;;;5042873;28;20284;-90
2023/08/27 01:13:29;;;;;;;12.43;8.90;;;;;22.40;96300.00;;;;5046732;28;20202;-89
2023/08/27 01:16:20;;;;;;;13.57;9.43;;;;;22.60;96317.00;;;;5054343;28;20228;-90
2023/08/27 01:19:16;;;;;;;13.40;9.80;;;;;22.70;96317.00;;;;5044292;28;20205;-89
2023/08/27 01:22:06;;;;;;;10.03;8.97;;;;;22.70;96316.00;;;;5034505;28;20279;-89
2023/08/27 01:24:55;;;;;;;10.03;8.60;;;;;22.40;96317.00;;;;5042194;28;20212;-87
2023/08/27 01:27:50;;;;;;;15.90;8.87;;;;;22.20;96314.00;;;;5051116;28;20204;-88
2023/08/27 01:30:43;;;;;;;12.63;10.83;;;;;22.20;96326.00;;;;5051805;28;20624;-87
2023/08/27 01:33:33;;;;;;;15.23;10.93;;;;;22.10;96330.00;;;;5044364;28;20220;-88
2023/08/27 01:36:22;;;;;;;13.83;9.00;;;;;22.20;96338.00;;;;5041818;28;20229;-88
2023/08/27 01:39:15;;;;;;;12.37;9.37;;;;;22.50;96331.00;;;;5045599;28;20205;-87
2023/08/27 01:42:04;;;;;;;9.60;8.13;;;;;22.40;96323.00;;;;5031679;28;20213;-87
2023/08/27 01:44:53;;;;;;;11.87;8.67;;;;;22.30;96329.00;;;;5033081;28;20209;-87
2023/08/27 01:47:42;;;;;;;13.73;9.87;;;;;22.40;96320.00;;;;5049597;28;20207;-88
2023/08/27 01:50:32;;;;;;;11.37;8.77;;;;;22.20;96314.00;;;;5045817;28;20217;-88
2023/08/27 01:53:21;;;;;;;14.57;10.20;;;;;21.90;96309.00;;;;5039504;28;20215;-84
2023/08/27 01:56:11;;;;;;;12.30;9.87;;;;;21.60;96315.00;;;;5041125;28;20225;-87
2023/08/27 01:59:00;;;;;;;16.13;9.10;;;;;21.80;96309.00;;;;5045874;28;20210;-86
2023/08/27 02:01:49;;;;;;;10.27;8.90;;;;;21.30;96305.00;;;;5046513;28;20579;-84
2023/08/27 02:04:38;;;;;;;10.77;8.93;;;;;20.90;96312.00;;;;5049176;28;20215;-86
2023/08/27 02:07:27;;;;;;;10.60;8.67;;;;;21.30;96328.00;;;;5043528;28;20205;-85
2023/08/27 02:10:16;;;;;;;10.77;8.10;;;;;21.20;96323.00;;;;5046803;28;20614;-85
2023/08/27 02:13:07;;;;;;;19.97;8.67;;;;;21.30;96319.00;;;;5047627;28;20212;-88
2023/08/27 02:15:56;;;;;;;12.30;10.60;;;;;21.60;96312.00;;;;5039103;28;20221;-86
2023/08/27 02:18:45;;;;;;;12.27;9.82;;;;;21.50;96318.00;;;;5032317;28;20396;-84
2023/08/27 02:21:34;;;;;;;11.90;8.83;;;;;21.60;96305.00;;;;5048684;28;20239;-88
2023/08/27 02:24:23;;;;;;;11.13;7.97;;;;;21.80;96319.00;;;;5051677;28;20674;-85
2023/08/27 02:27:12;;;;;;;9.95;8.90;;;;;21.70;96304.00;;;;5044511;28;20382;-87
2023/08/27 02:30:03;;;;;;;10.70;8.65;;;;;21.70;96294.00;;;;5042007;28;20401;-87
2023/08/27 02:32:52;;;;;;;11.50;8.33;;;;;21.50;96292.00;;;;5032234;28;20208;-88
2023/08/27 02:35:41;;;;;;;10.73;8.77;;;;;21.80;96291.00;;;;5037615;28;20215;-85
2023/08/27 02:38:31;;;;;;;12.73;9.00;;;;;21.60;96295.00;;;;5041425;28;20204;-86
2023/08/27 02:41:20;;;;;;;8.70;7.73;;;;;21.10;96282.00;;;;5053817;28;20231;-87
2023/08/27 02:44:09;;;;;;;10.70;8.50;;;;;21.10;96278.00;;;;5034291;28;20197;-88
2023/08/27 02:46:59;;;;;;;10.23;8.40;;;;;21.40;96291.00;;;;5035980;28;20224;-89
2023/08/27 02:49:49;;;;;;;10.67;8.47;;;;;21.60;96284.00;;;;5045078;28;20213;-86
2023/08/27 02:52:38;;;;;;;10.17;8.20;;;;;21.60;96277.00;;;;5039802;28;20216;-86
2023/08/27 02:55:28;;;;;;;10.63;8.93;;;;;21.30;96288.00;;;;5049001;28;20207;-89
2023/08/27 02:58:17;;;;;;;13.53;7.67;;;;;21.30;96287.00;;;;5041891;28;20618;-88
2023/08/27 03:01:06;;;;;;;9.23;7.87;;;;;21.60;96275.00;;;;5043053;28;20220;-86
2023/08/27 03:03:56;;;;;;;10.97;8.50;;;;;21.50;96272.00;;;;5044049;28;20217;-89
2023/08/27 03:06:45;;;;;;;9.13;8.03;;;;;21.60;96277.00;;;;5053974;28;20208;-87
2023/08/27 03:09:34;;;;;;;10.93;7.50;;;;;21.70;96285.00;;;;5063536;28;20218;-85
2023/08/27 03:12:23;;;;;;;15.53;8.80;;;;;21.60;96296.00;;;;5047808;28;20231;-87
2023/08/27 03:15:13;;;;;;;10.17;7.90;;;;;21.30;96289.00;;;;5047288;28;20209;-85
2023/08/27 03:18:03;;;;;;;9.07;7.60;;;;;21.40;96295.00;;;;5035861;28;20224;-88
2023/08/27 03:20:53;;;;;;;13.00;7.47;;;;;21.50;96294.00;;;;5052249;28;20235;-88
2023/08/27 03:23:42;;;;;;;9.57;7.95;;;;;21.20;96302.00;;;;5042396;28;20398;-88
2023/08/27 03:26:31;;;;;;;9.50;8.50;;;;;20.60;96302.00;;;;5042546;28;20396;-86
2023/08/27 03:29:20;;;;;;;11.40;8.20;;;;;21.00;96301.00;;;;5047923;28;20204;-86
2023/08/27 03:32:11;;;;;;;11.23;7.53;;;;;21.30;96306.00;;;;5044158;28;20616;-84
2023/08/27 03:35:00;;;;;;;9.17;8.00;;;;;21.40;96304.00;;;;5044244;28;20213;-86
2023/08/27 03:37:50;;;;;;;10.73;9.67;;;;;21.20;96316.00;;;;5043863;28;20228;-87
2023/08/27 03:40:39;;;;;;;8.93;7.97;;;;;21.10;96326.00;;;;5041717;28;20244;-86
2023/08/27 03:43:29;;;;;;;12.87;9.90;;;;;20.90;96330.00;;;;5040266;28;20569;-85
2023/08/27 03:46:18;;;;;;;12.07;8.20;;;;;21.00;96326.00;;;;5042030;28;20205;-89
2023/08/27 03:49:07;;;;;;;8.97;7.50;;;;;21.30;96322.00;;;;5036776;28;20207;-87
2023/08/27 03:51:56;;;;;;;10.43;7.47;;;;;21.30;96317.00;;;;5046921;28;20223;-88
2023/08/27 03:54:46;;;;;;;8.20;7.03;;;;;21.30;96319.00;;;;5041452;28;20206;-85
2023/08/27 03:57:35;;;;;;;9.03;7.77;;;;;21.40;96324.00;;;;5052343;28;20220;-88
2023/08/27 04:00:25;;;;;;;7.93;7.13;;;;;21.30;96318.00;;;;5046945;28;20228;-87
2023/08/27 04:03:14;;;;;;;9.97;8.03;;;;;20.50;96314.00;;;;5051459;28;20201;-88
2023/08/27 04:06:06;;;;;;;11.27;9.47;;;;;20.70;96317.00;;;;5033334;28;20737;-87
2023/08/27 04:08:55;;;;;;;9.53;8.37;;;;;20.70;96315.00;;;;5042522;28;20211;-85
2023/08/27 04:11:46;;;;;;;11.00;8.93;;;;;20.60;96318.00;;;;5034110;28;20233;-87
2023/08/27 04:14:35;;;;;;;9.77;8.00;;;;;20.40;96311.00;;;;5049004;28;20205;-85
2023/08/27 04:17:24;;;;;;;12.93;8.47;;;;;20.50;96309.00;;;;5032560;28;20229;-88
2023/08/27 04:20:13;;;;;;;10.30;7.23;;;;;20.30;96296.00;;;;5034680;28;20560;-84
2023/08/27 04:23:02;;;;;;;11.53;8.90;;;;;20.50;96300.00;;;;5039495;28;20205;-86
2023/08/27 04:25:52;;;;;;;11.17;8.53;;;;;20.50;96295.00;;;;5048138;28;20202;-84
2023/08/27 04:28:42;;;;;;;13.00;9.17;;;;;20.70;96289.00;;;;5050457;28;20201;-87
2023/08/27 04:31:31;;;;;;;9.57;8.53;;;;;21.10;96279.00;;;;5045183;28;20244;-85
2023/08/27 04:34:21;;;;;;;11.57;8.47;;;;;21.30;96282.00;;;;5039238;28;20205;-86
2023/08/27 04:37:11;;;;;;;10.37;7.80;;;;;21.40;96278.00;;;;5032520;28;20221;-86
2023/08/27 04:40:00;;;;;;;9.93;8.17;;;;;21.30;96276.00;;;;5031306;28;20758;-85
2023/08/27 04:42:49;;;;;;;9.97;7.63;;;;;21.30;96278.00;;;;5038029;28;20198;-84
2023/08/27 04:45:39;;;;;;;8.30;7.23;;;;;21.30;96274.00;;;;5041900;28;20209;-87
2023/08/27 04:48:28;;;;;;;10.20;8.57;;;;;21.10;96272.00;;;;5031147;28;20213;-87
2023/08/27 04:51:17;;;;;;;10.57;8.50;;;;;21.00;96277.00;;;;5036820;28;20236;-85
2023/08/27 04:54:07;;;;;;;9.63;8.53;;;;;21.20;96274.00;;;;5038481;28;20201;-87
2023/08/27 04:56:56;;;;;;;14.37;8.50;;;;;21.30;96278.00;;;;5047849;28;20224;-85
2023/08/27 04:59:45;;;;;;;13.57;8.93;;;;;21.10;96280.00;;;;5031866;28;20193;-86
2023/08/27 05:02:35;;;;;;;14.30;9.27;;;;;20.80;96287.00;;;;5042058;28;20224;-85
2023/08/27 05:05:24;;;;;;;10.20;9.20;;;;;20.80;96294.00;;;;5038022;28;20193;-85
2023/08/27 05:08:14;;;;;;;10.10;8.77;;;;;20.40;96309.00;;;;5042735;28;20213;-85
2023/08/27 05:11:03;;;;;;;10.07;8.00;;;;;20.50;96310.00;;;;5039499;28;20221;-89
2023/08/27 05:13:52;;;;;;;11.47;9.30;;;;;20.90;96305.00;;;;5035917;28;20212;-88
2023/08/27 05:16:42;;;;;;;12.87;9.07;;;;;21.10;96307.00;;;;5039167;28;20209;-84
2023/08/27 05:19:33;;;;;;;10.37;8.10;;;;;21.20;96310.00;;;;5046202;28;20209;-85
2023/08/27 05:22:22;;;;;;;15.57;9.47;;;;;21.40;96306.00;;;;5048168;28;20690;-85
2023/08/27 05:25:11;;;;;;;10.07;8.93;;;;;21.70;96312.00;;;;5040220;28;20215;-86
2023/08/27 05:28:00;;;;;;;10.10;9.10;;;;;21.70;96310.00;;;;5035870;28;20271;-86
2023/08/27 05:30:49;;;;;;;10.43;8.37;;;;;21.70;96320.00;;;;5032142;28;20225;-87
2023/08/27 05:33:39;;;;;;;12.20;7.90;;;;;21.60;96310.00;;;;5046270;28;20583;-85
2023/08/27 05:36:29;;;;;;;12.17;8.40;;;;;21.80;96326.00;;;;5046967;28;20206;-89
2023/08/27 05:39:19;;;;;;;12.90;8.67;;;;;22.00;96312.00;;;;5043948;28;20228;-89
2023/08/27 05:42:08;;;;;;;10.17;8.00;;;;;22.20;96310.00;;;;5043163;28;20243;-89
2023/08/27 05:44:57;;;;;;;9.93;7.63;;;;;22.50;96308.00;;;;5044024;28;20200;-86
2023/08/27 05:47:46;;;;;;;9.73;8.30;;;;;22.50;96304.00;;;;5036239;28;20205;-87
2023/08/27 05:50:36;;;;;;;12.20;9.20;;;;;22.60;96305.00;;;;5042263;28;20282;-88
2023/08/27 05:53:27;;;;;;;13.03;8.77;;;;;22.50;96310.00;;;;5045878;28;20662;-86
2023/08/27 05:56:16;;;;;;;9.43;7.83;;;;;22.70;96302.00;;;;5036881;28;20189;-86
2023/08/27 05:59:05;;;;;;;9.80;7.70;;;;;22.90;96307.00;;;;5040190;28;20231;-86
2023/08/27 06:01:55;;;;;;;12.27;7.30;;;;;23.00;96301.00;;;;5042189;28;20220;-89
2023/08/27 06:04:44;;;;;;;9.13;6.93;;;;;23.10;96305.00;;;;5038073;28;20201;-88
2023/08/27 06:07:33;;;;;;;13.57;7.50;;;;;23.10;96312.00;;;;5047346;28;20196;-90
2023/08/27 06:10:23;;;;;;;10.10;7.30;;;;;23.20;96313.00;;;;5038291;28;20212;-88
2023/08/27 06:13:13;;;;;;;16.63;9.13;;;;;23.40;96308.00;;;;5042364;28;20212;-86
2023/08/27 06:16:02;;;;;;;8.37;6.67;;;;;23.40;96308.00;;;;5041606;28;20586;-87
2023/08/27 06:18:51;;;;;;;7.40;6.70;;;;;23.50;96307.00;;;;5046399;28;20212;-86
2023/08/27 06:21:40;;;;;;;9.47;6.57;;;;;23.60;96313.00;;;;5038020;28;20228;-88
2023/08/27 06:24:29;;;;;;;8.10;6.37;;;;;23.70;96305.00;;;;5040279;28;20201;-87
2023/08/27 06:27:20;;;;;;;9.40;6.67;;;;;23.70;96314.00;;;;5032361;28;20216;-87
2023/08/27 06:30:10;;;;;;;9.40;6.63;;;;;23.80;96308.00;;;;5044312;28;20620;-86
2023/08/27 06:32:59;;;;;;;11.37;7.37;;;;;23.90;96309.00;;;;5042160;28;20567;-85
2023/08/27 06:35:49;;;;;;;11.20;7.00;;;;;23.90;96316.00;;;;5043517;28;20291;-86
2023/08/27 06:38:38;;;;;;;7.77;6.27;;;;;23.90;96321.00;;;;5034613;28;20209;-86
2023/08/27 06:41:27;;;;;;;7.47;6.67;;;;;23.90;96314.00;;;;5034361;28;20232;-86
2023/08/27 06:44:18;;;;;;;9.93;6.47;;;;;24.10;96324.00;;;;5039413;28;20613;-87
2023/08/27 06:47:07;;;;;;;9.00;7.03;;;;;24.20;96314.00;;;;5037807;28;20201;-85
2023/08/27 06:49:56;;;;;;;10.07;6.87;;;;;24.00;96304.00;;;;5038144;28;20209;-89
2023/08/27 06:52:45;;;;;;;7.93;7.13;;;;;24.00;96314.00;;;;5036698;28;20662;-85
2023/08/27 06:55:35;;;;;;;10.57;7.50;;;;;24.10;96333.00;;;;5035587;28;20222;-86
2023/08/27 06:58:25;;;;;;;9.67;7.30;;;;;24.20;96323.00;;;;5034571;28;20740;-86
2023/08/27 07:01:15;;;;;;;11.00;6.80;;;;;24.30;96300.00;;;;5036108;28;20240;-86
2023/08/27 07:04:04;;;;;;;7.73;6.97;;;;;24.60;96300.00;;;;5037055;28;20201;-88
2023/08/27 07:06:54;;;;;;;10.07;6.33;;;;;24.70;96305.00;;;;5031800;28;20212;-91
2023/08/27 07:09:43;;;;;;;7.70;5.23;;;;;25.00;96306.00;;;;5033216;28;20197;-87
2023/08/27 07:12:35;;;;;;;9.47;5.27;;;;;25.10;96303.00;;;;5037304;28;20236;-86
2023/08/27 07:15:24;;;;;;;7.37;5.90;;;;;25.30;96306.00;;;;5049915;28;20201;-89
2023/08/27 07:18:15;;;;;;;7.17;5.73;;;;;25.30;96289.00;;;;5032271;28;20229;-88
2023/08/27 07:21:04;;;;;;;7.97;5.30;;;;;25.60;96300.00;;;;5040885;28;20728;-87
2023/08/27 07:23:53;;;;;;;6.90;4.50;;;;;25.80;96287.00;;;;5035978;28;20207;-90
2023/08/27 07:26:42;;;;;;;6.17;5.17;;;;;25.90;96286.00;;;;5038412;28;20209;-87
2023/08/27 07:29:31;;;;;;;6.57;4.67;;;;;26.00;96287.00;;;;5035934;28;20204;-89
2023/08/27 07:32:21;;;;;;;6.50;5.87;;;;;26.00;96296.00;;;;5038694;28;20216;-88
2023/08/27 07:35:11;;;;;;;9.40;6.07;;;;;26.20;96290.00;;;;5033381;28;20213;-89
2023/08/27 07:38:00;;;;;;;6.60;5.23;;;;;26.30;96271.00;;;;5045608;28;20193;-88
2023/08/27 07:40:50;;;;;;;5.60;5.10;;;;;26.70;96272.00;;;;5049054;28;20605;-89
2023/08/27 07:43:39;;;;;;;6.87;5.53;;;;;26.70;96264.00;;;;5044356;28;20698;-88
2023/08/27 07:46:28;;;;;;;6.13;4.90;;;;;26.30;96267.00;;;;5051499;28;20212;-90
2023/08/27 07:49:17;;;;;;;6.53;5.50;;;;;26.70;96264.00;;;;5063692;28;20201;-89
2023/08/27 07:52:08;;;;;;;7.80;5.83;;;;;26.70;96270.00;;;;5059068;28;20226;-90
2023/08/27 07:54:57;;;;;;;5.50;4.97;;;;;26.60;96270.00;;;;5044331;28;20276;-88
2023/08/27 07:57:46;;;;;;;7.27;4.97;;;;;26.80;96271.00;;;;5035744;28;20642;-88
2023/08/27 08:00:35;;;;;;;8.80;5.77;;;;;26.90;96279.00;;;;5034339;28;20229;-88
2023/08/27 08:03:25;;;;;;;5.87;4.90;;;;;26.90;96266.00;;;;5037773;28;20210;-88
2023/08/27 08:06:14;;;;;;;6.97;6.27;;;;;27.00;96263.00;;;;5040094;28;20208;-88
2023/08/27 08:09:04;;;;;;;6.53;5.73;;;;;26.70;96268.00;;;;5038396;28;20204;-88
2023/08/27 08:11:54;;;;;;;7.20;5.13;;;;;26.80;96275.00;;;;5034705;28;20258;-88
2023/08/27 08:14:43;;;;;;;9.00;5.77;;;;;26.80;96281.00;;;;5037562;28;20217;-87
2023/08/27 08:17:32;;;;;;;6.40;5.87;;;;;27.00;96270.00;;;;5037430;28;20218;-88
2023/08/27 08:20:27;;;;;;;6.83;4.93;;;;;27.20;96264.00;;;;5038726;28;20229;-88
2023/08/27 08:23:17;;;;;;;6.47;5.47;;;;;27.60;96258.00;;;;5038906;28;20204;-88
2023/08/27 08:26:09;;;;;;;10.13;7.37;;;;;27.60;96259.00;;;;5038946;28;20211;-89
2023/08/27 08:28:58;;;;;;;7.73;6.23;;;;;27.20;96243.00;;;;5034536;28;20204;-88
2023/08/27 08:31:48;;;;;;;7.40;6.67;;;;;27.20;96248.00;;;;5031876;28;20232;-85
2023/08/27 08:34:37;;;;;;;9.10;7.10;;;;;26.60;96243.00;;;;5034680;28;20202;-85
2023/08/27 08:37:26;;;;;;;9.87;7.00;;;;;25.90;96241.00;;;;5029425;28;20209;-88
2023/08/27 08:40:18;;;;;;;7.10;6.23;;;;;26.70;96244.00;;;;5041809;28;20238;-85
2023/08/27 08:43:14;;;;;;;9.53;6.80;;;;;26.70;96239.00;;;;5041383;28;20701;-86
2023/08/27 08:46:04;;;;;;;10.93;7.50;;;;;26.80;96237.00;;;;5039552;28;20198;-87
2023/08/27 08:48:54;;;;;;;10.13;8.60;;;;;26.40;96242.00;;;;5034875;28;20569;-88
2023/08/27 08:51:44;;;;;;;12.17;9.23;;;;;26.20;96259.00;;;;5032309;28;20239;-87
2023/08/27 08:54:33;;;;;;;13.43;10.37;;;;;25.70;96241.00;;;;5042722;28;20545;-86
2023/08/27 08:57:25;;;;;;;12.93;10.70;;;;;26.10;96253.00;;;;5043230;28;20212;-87
2023/08/27 09:00:16;;;;;;;10.37;9.27;;;;;26.20;96240.00;;;;5045136;28;20553;-87
2023/08/27 09:03:05;;;;;;;14.53;9.40;;;;;26.50;96236.00;;;;5043248;28;20244;-87
2023/08/27 09:05:55;;;;;;;11.50;10.30;;;;;26.80;96251.00;;;;5038674;28;20214;-86
2023/08/27 09:08:44;;;;;;;14.40;10.97;;;;;26.20;96240.00;;;;5039250;28;20202;-87
2023/08/27 09:11:34;;;;;;;17.87;10.57;;;;;26.00;96237.00;;;;5047713;28;20236;-86
2023/08/27 09:14:23;;;;;;;13.03;11.57;;;;;26.30;96219.00;;;;5043167;28;20197;-86
2023/08/27 09:17:16;;;;;;;13.17;11.03;;;;;26.90;96231.00;;;;5034106;28;20208;-86
2023/08/27 09:20:08;;;;;;;15.37;11.10;;;;;27.60;96229.00;;;;5035151;28;20229;-86
2023/08/27 09:22:57;;;;;;;12.13;10.07;;;;;27.90;96229.00;;;;5048568;28;20205;-86
2023/08/27 09:25:47;;;;;;;11.93;10.63;;;;;28.70;96216.00;;;;5034565;28;20218;-86
2023/08/27 09:28:36;;;;;;;16.80;11.53;;;;;28.90;96210.00;;;;5049229;28;20396;-85
2023/08/27 09:31:38;;;;;;;11.63;9.70;;;;;29.10;96195.00;;;;5042455;28;20318;-86
2023/08/27 09:34:29;;;;;;;12.37;10.37;;;;;29.70;96197.00;;;;5043831;28;20207;-86
2023/08/27 09:37:18;;;;;;;12.90;10.13;;;;;29.70;96200.00;;;;5042177;28;20699;-85
2023/08/27 09:40:08;;;;;;;13.23;10.43;;;;;29.90;96204.00;;;;5034603;28;20598;-86
2023/08/27 09:43:05;;;;;;;13.17;10.37;;;;;30.00;96198.00;;;;5039782;28;20202;-86
2023/08/27 09:45:54;;;;;;;11.53;10.27;;;;;30.00;96189.00;;;;5039438;28;20222;-86
2023/08/27 09:48:43;;;;;;;14.83;10.70;;;;;30.40;96193.00;;;;5044545;28;20605;-86
2023/08/27 09:51:35;;;;;;;11.20;10.03;;;;;30.10;96186.00;;;;5038953;28;20230;-87
2023/08/27 09:54:30;;;;;;;12.73;10.00;;;;;30.60;96171.00;;;;5037398;28;20728;-86
2023/08/27 09:57:20;;;;;;;12.53;10.07;;;;;30.20;96173.00;;;;5047089;28;20215;-86
2023/08/27 10:00:10;;;;;;;13.20;10.47;;;;;29.30;96168.00;;;;5037009;28;20584;-86
2023/08/27 10:02:59;;;;;;;11.27;9.30;;;;;30.30;96162.00;;;;5040811;28;20217;-86
2023/08/27 10:05:51;;;;;;;13.80;9.60;;;;;31.30;96158.00;;;;5044421;28;20226;-86
2023/08/27 10:08:52;;;;;;;16.27;10.77;;;;;30.60;96153.00;;;;5043018;28;20204;-86
2023/08/27 10:11:43;;;;;;;12.03;10.73;;;;;30.60;96157.00;;;;5044189;28;20222;-85
2023/08/27 10:14:33;;;;;;;25.53;11.67;;;;;31.20;96142.00;;;;5041941;28;20719;-85
2023/08/27 10:17:22;;;;;;;11.87;10.40;;;;;31.30;96142.00;;;;5044103;28;20207;-85
2023/08/27 10:20:13;;;;;;;11.37;9.50;;;;;31.60;96129.00;;;;5040528;28;20616;-86
2023/08/27 10:23:03;;;;;;;11.73;10.53;;;;;32.10;96125.00;;;;5049697;28;20209;-86
2023/08/27 10:25:54;;;;;;;11.60;10.40;;;;;31.30;96140.00;;;;5038171;28;20205;-85
2023/08/27 10:28:43;;;;;;;12.47;9.57;;;;;31.60;96142.00;;;;5043541;28;20204;-86
2023/08/27 10:31:33;;;;;;;14.33;10.13;;;;;31.10;96143.00;;;;5038768;28;20698;-86
2023/08/27 10:34:23;;;;;;;10.73;9.60;;;;;30.80;96138.00;;;;5043521;28;20593;-86
2023/08/27 10:37:13;;;;;;;10.82;9.70;;;;;30.60;96129.00;;;;5046851;28;20204;-86
2023/08/27 10:40:08;;;;;;;11.07;9.88;;;;;31.50;96132.00;;;;5040853;28;20226;-87
2023/08/27 10:43:09;;;;;;;11.48;10.07;;;;;31.80;96144.00;;;;5043763;28;20232;-86
2023/08/27 10:46:10;;;;;;;10.90;9.77;;;;;31.20;96135.00;;;;5038140;28;20203;-86
2023/08/27 10:48:59;;;;;;;11.75;9.40;;;;;31.30;96126.00;;;;5041773;28;20203;-86
2023/08/27 10:51:48;;;;;;;13.43;10.52;;;;;31.40;96109.00;;;;5037199;28;20227;-86
2023/08/27 10:54:39;;;;;;;12.48;9.90;;;;;31.60;96107.00;;;;5039112;28;20217;-86
2023/08/27 10:57:28;;;;;;;12.27;10.00;;;;;31.20;96102.00;;;;5033511;28;20209;-86
2023/08/27 11:00:20;;;;;;;13.02;9.48;;;;;31.60;96112.00;;;;5036763;28;20236;-86
2023/08/27 11:03:15;;;;;;;10.18;9.18;;;;;31.10;96118.00;;;;5030440;28;20201;-86
2023/08/27 11:06:13;;;;;;;12.90;10.80;;;;;31.10;96110.00;;;;5034111;28;20294;-85
2023/08/27 11:09:04;;;;;;;12.27;10.50;;;;;31.30;96097.00;;;;5040084;28;20205;-86
2023/08/27 11:11:59;;;;;;;11.57;10.37;;;;;32.00;96099.00;;;;5048338;28;20222;-86
2023/08/27 11:14:48;;;;;;;11.40;9.52;;;;;32.40;96078.00;;;;5036967;28;20615;-86
2023/08/27 11:17:40;;;;;;;11.95;10.75;;;;;31.80;96102.00;;;;5043145;28;20206;-86
2023/08/27 11:20:30;;;;;;;11.52;10.35;;;;;31.30;96097.00;;;;5037054;28;20289;-85
2023/08/27 11:23:19;;;;;;;11.48;10.27;;;;;31.30;96084.00;;;;5040020;28;20215;-86
2023/08/27 11:26:08;;;;;;;11.85;10.48;;;;;32.10;96078.00;;;;5051562;28;20211;-86
2023/08/27 11:28:58;;;;;;;12.02;9.57;;;;;32.20;96082.00;;;;5042397;28;20208;-85
2023/08/27 11:31:47;;;;;;;13.70;10.40;;;;;32.90;96053.00;;;;5047784;28;20224;-87
2023/08/27 11:34:39;;;;;;;21.30;14.68;;;30.20;99.90;34.20;96042.00;;;;5047092;28;20210;-87
2023/08/27 11:37:32;;;;;;;14.30;11.90;;;30.10;99.90;34.90;96038.00;;;;5045918;28;20687;-86
2023/08/27 11:40:22;;;;;;;21.58;17.30;;;30.80;99.90;35.70;96036.00;;;;5041407;28;20688;-87
2023/08/27 11:43:11;;;;;;;10.80;9.75;;;31.50;99.90;35.60;96045.00;;;;5052290;28;20204;-87
2023/08/27 11:46:00;;;;;;;16.92;10.20;;;32.00;99.90;35.60;96052.00;;;;5050555;28;20212;-87
2023/08/27 11:48:49;;;;;;;31.25;27.98;;;32.40;99.90;36.00;96033.00;;;;5048418;28;20197;-87
2023/08/27 11:51:41;;;;;;;21.98;19.58;;;32.50;99.90;37.10;96034.00;;;;5040373;28;20256;-86
2023/08/27 11:54:31;;;;;;;14.00;12.30;;;33.00;99.90;37.50;96047.00;;;;5035614;28;20204;-87
2023/08/27 11:57:46;;;;;;;10.52;9.52;;;33.60;99.50;37.50;96049.00;;;;5035393;28;20213;-86
2023/08/27 12:00:48;;;;;;;10.30;9.30;;;33.90;98.30;37.30;96045.00;;;;5042966;28;20229;-86
2023/08/27 12:03:38;;;;;;;11.10;10.18;;;34.10;97.10;37.10;96041.00;;;;5037185;28;20208;-87
2023/08/27 12:06:28;;;;;;;9.95;8.95;;;34.10;95.10;36.10;96031.00;;;;5038720;28;20201;-87
2023/08/27 12:09:25;;;;;;;10.82;9.20;;;33.90;95.30;35.70;96029.00;;;;5036195;28;20205;-86
2023/08/27 12:12:14;;;;;;;9.15;8.35;;;33.60;95.40;36.00;96025.00;;;;5039054;28;20224;-87
2023/08/27 12:15:03;;;;;;;10.00;9.10;;;33.50;95.30;36.40;96024.00;;;;5035527;28;20231;-86
2023/08/27 12:17:52;;;;;;;9.57;8.73;;;33.50;95.70;35.90;96014.00;;;;5034903;28;20199;-86
2023/08/27 12:20:41;;;;;;;9.55;8.55;;;33.70;94.40;35.80;96021.00;;;;5038515;28;20220;-86
2023/08/27 12:23:30;;;;;;;10.25;8.82;;;33.50;95.30;37.30;96028.00;;;;5037769;28;20204;-86
2023/08/27 12:26:20;;;;;;;9.15;8.25;;;33.70;95.70;37.10;96027.00;;;;5038942;28;20243;-86
2023/08/27 12:29:12;;;;;;;9.15;8.35;;;34.00;95.00;37.00;96028.00;;;;5032467;28;20204;-86
2023/08/27 12:32:08;;;;;;;12.93;8.38;;;34.20;94.70;35.80;96028.00;;;;5029873;28;20232;-87
2023/08/27 12:34:59;;;;;;;8.32;7.57;;;34.10;92.90;37.60;96028.00;;;;5037846;28;20418;-86
2023/08/27 12:37:48;;;;;;;8.63;7.78;;;34.20;93.90;38.30;96025.00;;;;5036428;28;20205;-86
2023/08/27 12:40:37;;;;;;;9.10;8.00;;;34.50;93.80;39.10;96019.00;;;;5032321;28;20209;-86
2023/08/27 12:43:27;;;;;;;9.38;8.48;;;34.90;93.50;39.00;96015.00;;;;5038224;28;20681;-87
2023/08/27 12:46:16;;;;;;;9.70;7.10;;;35.30;92.30;38.40;96016.00;;;;5036184;28;20204;-85
2023/08/27 12:49:05;;;;;;;9.15;7.63;;;35.50;91.10;38.60;96020.00;;;;5033745;28;20213;-86
2023/08/27 12:51:55;;;;;;;7.78;7.07;;;35.50;90.30;39.00;96024.00;;;;5037331;28;20232;-86
2023/08/27 12:54:44;;;;;;;8.85;7.63;;;35.70;90.20;38.50;96020.00;;;;5033403;28;20209;-88
2023/08/27 12:57:33;;;;;;;8.35;7.50;;;35.70;88.40;38.60;96011.00;;;;5034933;28;20197;-86
2023/08/27 13:00:23;;;;;;;9.40;8.55;;;35.70;86.90;38.40;96009.00;;;;5036391;28;20216;-87
2023/08/27 13:03:13;;;;;;;8.27;7.45;;;35.70;85.70;39.10;96001.00;;;;5036138;28;20247;-87
2023/08/27 13:06:02;;;;;;;8.80;8.00;;;35.70;86.70;39.30;96011.00;;;;5041115;28;20207;-87
2023/08/27 13:08:50;;;;;;;13.25;9.52;;;35.90;87.60;39.80;96000.00;;;;5037832;28;20239;-87
2023/08/27 13:11:39;;;;;;;9.90;7.90;;;36.10;87.40;40.40;96001.00;;;;5037163;28;20221;-86
2023/08/27 13:14:28;;;;;;;11.27;8.52;;;36.40;87.00;39.80;96002.00;;;;5037097;28;20204;-87
2023/08/27 13:17:20;;;;;;;8.00;7.20;;;36.60;83.70;40.30;96009.00;;;;5035894;28;20224;-86
2023/08/27 13:20:11;;;;;;;9.40;8.37;;;36.80;83.50;40.40;96006.00;;;;5033214;28;20197;-87
2023/08/27 13:23:00;;;;;;;8.48;7.13;;;37.10;83.20;40.00;96002.00;;;;5034896;28;20200;-87
2023/08/27 13:25:49;;;;;;;8.40;7.70;;;37.00;82.60;40.60;96014.00;;;;5034236;28;20201;-86
2023/08/27 13:28:38;;;;;;;12.00;8.02;;;37.00;82.40;40.10;96003.00;;;;5040310;28;20200;-87
2023/08/27 13:31:27;;;;;;;7.63;6.93;;;37.00;82.20;40.30;96004.00;;;;5036317;28;20232;-87
2023/08/27 13:34:18;;;;;;;8.45;7.60;;;37.10;81.20;39.90;96025.00;;;;5035846;28;20231;-87
2023/08/27 13:37:07;;;;;;;8.02;7.32;;;37.60;83.80;39.30;96015.00;;;;5037296;28;20189;-86
2023/08/27 13:39:56;;;;;;;8.80;7.55;;;36.80;80.60;38.70;96010.00;;;;5037021;28;20205;-86
2023/08/27 13:42:45;;;;;;;9.77;8.75;;;36.30;80.60;38.60;96022.00;;;;5037659;28;20674;-86
2023/08/27 13:45:34;;;;;;;11.27;8.68;;;36.30;81.20;38.30;96001.00;;;;5035133;28;20246;-86